Aviation Digital Data Service (ADDS)

Output produced by METARs form (1629 UTC 23 October 2014)
found at http://www.aviationweather.gov/adds/metars/
 
KCMI 231125Z 2312/2412 13005KT P6SM BKN250 
     FM231600 19009KT P6SM SCT070 BKN200 
     FM240400 VRB03KT P6SM BKN025 
     TEMPO 2408/2412 4SM BR